• Join FlightAware (Why Join?)
  • Login
  • US Flag 
10:48AM EDT


 

Airport Tracker/Info


-or-


 

Live Flight TrackerFlight Track Log ✈ UCA5001 ✈ 30-Apr-2013 ✈ KALB - KEWR

Flight Track Log - Related Links

Times and Time Zones

All times are in EDT time to prevent confusion due to time zone crossing. See the UCA5001 flight status page for this flight to view local times or setup timezone preferences in your user account.

Time Position Orientation Groundspeed Altitude Reporting Facility
EDT Latitude Longitude Course Direction KTS MPH feet Rate Location/Type
11:44AM 42.7361 -73.8111 209° Southwest 127 146 1,000  Level Boston Center
11:45AM 42.7214 -73.8078 171° South 132 152 1,700 1,560 Climbing Boston Center
11:46AM 42.6858 -73.8297 204° Southwest 166 191 3,100 1,560 Climbing Boston Center
11:47AM 42.6353 -73.8708 211° Southwest 158 182 5,300 1,560 Climbing Boston Center
11:48AM 42.5911 -73.9036 209° Southwest 163 188 6,900 1,380 Climbing Boston Center
11:49AM 42.5511 -73.9339 209° Southwest 176 203 8,100 1,320 Climbing Boston Center
11:50AM 42.3988 -73.8661 209° Southwest  Level Estimated
11:50AM 42.5028 -73.9692 208° Southwest 188 216 9,600  Level Boston Center
11:51AM 42.4603 -74.0106 216° Southwest 203 234 10,100 300 Climbing Boston Center
11:51AM 42.4436 -74.0183 199° South 232 267 10,000 -120 Descending Boston Center
11:52AM 42.3825 -74.0647 209° Southwest 271 312 10,000 -60 Level Boston Center
11:53AM 42.3256 -74.1108 211° Southwest 270 311 9,900 -60 Descending Boston Center
11:54AM 42.2581 -74.1653 211° Southwest 264 304 9,900  Level Boston Center
11:55AM 42.2011 -74.2086 209° Southwest 264 304 9,900  Level Boston Center
11:56AM 42.1317 -74.2569 207° Southwest 264 304 9,900  Level Boston Center
11:57AM 42.0767 -74.3003 210° Southwest 264 304 9,900  Level Boston Center
11:58AM 42.0072 -74.3456 206° Southwest 264 304 10,000  Climbing Boston Center
11:59AM 41.9522 -74.3858 209° Southwest 264 304 10,000 -300 Level Boston Center
12:00PM 41.8806 -74.4394 209° Southwest 264 304 9,500 -540 Descending Boston Center
12:01PM 41.8192 -74.4819 207° Southwest 270 311 9,000 -600 Descending Boston Center
12:02PM 41.7456 -74.5297 206° Southwest 275 316 8,300 -660 Descending Boston Center
12:03PM 41.6744 -74.5414 187° South 261 300 7,700 -600 Descending Boston Center
12:04PM 41.6178 -74.5533 189° South 261 300 7,200 -600 Descending Boston Center
12:05PM 41.5364 -74.5672 187° South 261 300 6,500 -600 Descending Boston Center
12:06PM 41.4653 -74.5786 187° South 254 292 6,000 -300 Descending Boston Center
12:07PM 41.4003 -74.5958 191° South 254 292 6,000  Level Boston Center
12:08PM 41.3333 -74.6167 193° South 236 272 6,000  Level New York TRACON
12:09PM 41.2667 -74.6500 201° Southwest 239 275 6,000  Level New York TRACON
12:10PM 41.2000 -74.6500 180° South 237 273 6,000 -360 Level New York TRACON
12:11PM 41.1333 -74.6167 159° South 251 289 5,300 -900 Descending New York TRACON
12:12PM 41.0667 -74.5833 159° South 241 277 4,300 -600 Descending New York TRACON
12:13PM 41.0167 -74.5667 166° South 234 269 4,100 -120 Descending New York TRACON
12:14PM 40.9500 -74.5333 159° South 233 268 4,100 -420 Level New York TRACON
12:15PM 40.9000 -74.5000 153° Southeast 238 274 3,400 -540 Descending New York TRACON
12:16PM 40.8333 -74.4667 159° South 233 268 3,100 -300 Descending New York TRACON
12:17PM 40.7833 -74.4333 153° Southeast 212 244 2,800 -540 Descending New York TRACON
12:18PM 40.7333 -74.4000 153° Southeast 166 191 2,100 -360 Descending New York TRACON
12:19PM 40.7167 -74.3500 114° Southeast 166 191 2,100 -60 Level New York TRACON
12:20PM 40.7167 -74.3000 90° East 140 161 2,000 -420 Descending New York TRACON
12:21PM 40.7000 -74.2500 114° Southeast 118 136 1,300 -720 Descending New York TRACON